Archerfield AIRPORT WEATHER FORECAST (YBAF)

METAR

METAR YBAF 191630Z AUTO 00000KT 9999 // NCD 16/15 Q1015 RMK RF00.0/000.0

TAF

TAF YBAF 191626Z 1918/2006 20005KT 9999 FEW020 FM192300 15008KT CAVOK FM200400 10013KT 9999 FEW035 PROB30 1918/1921 0500 FG RMK T 15 16 24 27 Q 1016 1018 1019 1016

QNH 

1015

Temperature & Dew Point

12° DP15